createdAt,value
2018-04-06T00:02:26.860Z,4.03
2018-04-06T00:04:53.569Z,3.80
2018-04-06T00:07:20.247Z,3.87
2018-04-06T00:09:46.976Z,4.33
2018-04-06T00:12:13.685Z,4.13
2018-04-06T00:14:40.370Z,4.00
2018-04-06T00:17:07.811Z,5.23
2018-04-06T00:19:34.513Z,3.47
2018-04-06T00:22:01.205Z,3.80
2018-04-06T00:24:27.910Z,4.17
2018-04-06T00:26:54.643Z,3.57
2018-04-06T00:29:21.341Z,4.30
2018-04-06T00:31:48.030Z,4.10
2018-04-06T00:34:14.743Z,4.10
2018-04-06T00:36:41.441Z,3.70
2018-04-06T00:39:08.113Z,3.80
2018-04-06T00:41:35.446Z,3.80
2018-04-06T00:44:02.170Z,4.10
2018-04-06T00:46:28.857Z,4.00
2018-04-06T00:48:55.559Z,3.90
2018-04-06T00:51:22.254Z,4.20
2018-04-06T00:53:48.939Z,3.97
2018-04-06T00:56:15.635Z,4.30
2018-04-06T00:58:43.279Z,3.70
2018-04-06T01:01:09.994Z,4.27
2018-04-06T01:03:36.692Z,3.93
2018-04-06T01:06:03.397Z,3.73
2018-04-06T01:08:30.065Z,4.10
2018-04-06T01:10:56.748Z,4.40
2018-04-06T01:13:23.446Z,3.90
2018-04-06T01:15:50.141Z,4.87
2018-04-06T01:18:17.200Z,3.87
2018-04-06T01:20:43.954Z,4.73
2018-04-06T01:23:10.673Z,4.50
2018-04-06T01:25:37.344Z,4.43
2018-04-06T01:28:04.057Z,4.30
2018-04-06T01:30:30.730Z,4.27
2018-04-06T01:32:57.444Z,5.37
2018-04-06T01:35:24.531Z,3.77
2018-04-06T01:37:51.320Z,4.60
2018-04-06T01:40:18.134Z,4.23
2018-04-06T01:42:44.815Z,4.90
2018-04-06T01:45:14.627Z,4.50
2018-04-06T01:47:41.412Z,4.03
2018-04-06T01:50:08.210Z,4.63
2018-04-06T01:52:34.906Z,4.00
2018-04-06T01:55:01.622Z,4.60
2018-04-06T01:57:28.301Z,4.20
2018-04-06T01:59:55.373Z,4.90
2018-04-06T02:02:22.140Z,4.23
2018-04-06T02:04:48.828Z,4.70
2018-04-06T02:07:15.512Z,4.73
2018-04-06T02:09:42.270Z,4.50
2018-04-06T02:12:09.034Z,3.80
2018-04-06T02:14:35.754Z,4.30
2018-04-06T02:17:02.462Z,4.50
2018-04-06T02:19:29.188Z,3.97
2018-04-06T02:21:55.887Z,3.80
2018-04-06T02:24:22.559Z,4.40
2018-04-06T02:26:49.326Z,4.97
2018-04-06T02:29:16.051Z,4.20
2018-04-06T02:31:42.784Z,4.00
2018-04-06T02:34:09.458Z,4.23
2018-04-06T02:36:36.950Z,4.90
2018-04-06T02:39:03.653Z,4.47
2018-04-06T02:41:30.483Z,4.23
2018-04-06T02:43:57.156Z,3.87
2018-04-06T02:46:23.871Z,4.40
2018-04-06T02:48:50.581Z,4.40
2018-04-06T02:51:17.259Z,4.80
2018-04-06T02:53:43.956Z,3.97
2018-04-06T02:56:10.771Z,3.90
2018-04-06T02:58:37.449Z,4.03
2018-04-06T03:01:04.158Z,5.17
2018-04-06T03:03:30.846Z,4.50
2018-04-06T03:05:57.567Z,4.17
2018-04-06T03:08:24.264Z,4.30
2018-04-06T03:10:50.942Z,4.00
2018-04-06T03:13:17.651Z,4.30
2018-04-06T03:15:44.339Z,4.40
2018-04-06T03:18:11.136Z,4.60
2018-04-06T03:20:37.837Z,4.63
2018-04-06T03:23:04.514Z,4.83
2018-04-06T03:25:32.137Z,5.30
2018-04-06T03:27:58.863Z,4.50
2018-04-06T03:30:25.617Z,4.90
2018-04-06T03:32:52.318Z,4.60
2018-04-06T03:35:18.990Z,4.73
2018-04-06T03:37:45.681Z,4.63
2018-04-06T03:40:12.395Z,5.20
2018-04-06T03:42:39.125Z,4.70
2018-04-06T03:45:05.844Z,5.07
2018-04-06T03:47:32.533Z,5.57
2018-04-06T03:49:59.232Z,5.40
2018-04-06T03:52:25.933Z,4.80
2018-04-06T03:54:52.649Z,4.83
2018-04-06T03:57:19.313Z,4.43
2018-04-06T03:59:46.031Z,5.23
2018-04-06T04:02:12.717Z,4.93
2018-04-06T04:04:39.414Z,5.23
2018-04-06T04:07:06.146Z,5.40
2018-04-06T04:09:32.843Z,4.90
2018-04-06T04:11:59.571Z,5.13
2018-04-06T04:14:26.281Z,5.73
2018-04-06T04:16:52.975Z,5.00
2018-04-06T04:19:19.659Z,5.77
2018-04-06T04:21:46.349Z,5.00
2018-04-06T04:24:13.058Z,5.47
2018-04-06T04:26:39.731Z,5.23
2018-04-06T04:29:06.420Z,5.10
2018-04-06T04:31:33.131Z,5.70
2018-04-06T04:33:59.810Z,5.20
2018-04-06T04:36:26.488Z,5.67
2018-04-06T04:38:53.187Z,6.03
2018-04-06T04:41:19.858Z,6.07
2018-04-06T04:43:47.717Z,6.10
2018-04-06T04:46:14.488Z,5.20
2018-04-06T04:48:41.186Z,5.30
2018-04-06T04:51:07.920Z,5.40
2018-04-06T04:53:34.658Z,5.63
2018-04-06T04:56:01.400Z,6.00
2018-04-06T04:58:28.199Z,4.73
2018-04-06T05:00:54.959Z,5.83
2018-04-06T05:03:21.678Z,5.17
2018-04-06T05:05:48.363Z,5.53
2018-04-06T05:08:15.098Z,6.20
2018-04-06T05:10:41.789Z,6.20
2018-04-06T05:13:08.537Z,5.83
2018-04-06T05:15:39.288Z,5.80
2018-04-06T05:18:06.445Z,6.70
2018-04-06T05:20:33.185Z,6.10
2018-04-06T05:22:59.885Z,6.13
2018-04-06T05:25:26.580Z,6.83
2018-04-06T05:27:53.262Z,6.97
2018-04-06T05:30:20.714Z,6.63
2018-04-06T05:32:47.399Z,7.43
2018-04-06T05:35:14.104Z,6.70
2018-04-06T05:37:40.796Z,6.47
2018-04-06T05:40:07.532Z,6.90
2018-04-06T05:42:34.250Z,6.70
2018-04-06T05:45:00.920Z,6.70
2018-04-06T05:47:27.637Z,7.40
2018-04-06T05:49:54.327Z,7.13
2018-04-06T05:52:21.034Z,7.07
2018-04-06T05:54:47.723Z,7.47
2018-04-06T05:57:14.452Z,7.80
2018-04-06T05:59:41.161Z,7.50
2018-04-06T06:02:07.837Z,7.00
2018-04-06T06:04:34.563Z,8.17
2018-04-06T06:07:01.279Z,7.63
2018-04-06T06:09:28.039Z,7.77
2018-04-06T06:11:54.741Z,7.60
2018-04-06T06:14:21.452Z,8.20
2018-04-06T06:16:48.142Z,8.13
2018-04-06T06:19:14.841Z,7.63
2018-04-06T06:21:41.546Z,7.60
2018-04-06T06:24:08.237Z,7.40
2018-04-06T06:26:34.946Z,7.50
2018-04-06T06:29:01.669Z,7.40
2018-04-06T06:31:28.450Z,8.10
2018-04-06T06:33:55.539Z,7.90
2018-04-06T06:36:22.212Z,8.70
2018-04-06T06:38:48.966Z,7.80
2018-04-06T06:41:15.647Z,9.70
2018-04-06T06:43:42.346Z,8.50
2018-04-06T06:46:09.060Z,8.00
2018-04-06T06:48:35.733Z,9.13
2018-04-06T06:51:02.426Z,9.70
2018-04-06T06:53:29.116Z,8.00
2018-04-06T06:55:55.825Z,8.43
2018-04-06T06:58:22.554Z,8.00
2018-04-06T07:00:49.238Z,9.00
2018-04-06T07:03:16.575Z,8.40
2018-04-06T07:05:43.422Z,9.27
2018-04-06T07:08:10.142Z,9.30
2018-04-06T07:10:36.829Z,8.93
2018-04-06T07:13:03.746Z,8.90
2018-04-06T07:15:30.503Z,10.33
2018-04-06T07:17:57.246Z,8.73
2018-04-06T07:20:24.009Z,9.63
2018-04-06T07:22:50.687Z,9.20
2018-04-06T07:25:17.426Z,9.53
2018-04-06T07:27:44.150Z,9.77
2018-04-06T07:30:10.883Z,10.20
2018-04-06T07:32:37.627Z,10.43
2018-04-06T07:35:04.348Z,11.20
2018-04-06T07:37:31.361Z,9.97
2018-04-06T07:39:58.089Z,9.47
2018-04-06T07:42:24.849Z,10.90
2018-04-06T07:44:51.594Z,9.90
2018-04-06T07:47:18.302Z,10.17
2018-04-06T07:49:45.036Z,9.90
2018-04-06T07:52:11.756Z,10.53
2018-04-06T07:54:38.463Z,10.27
2018-04-06T07:57:05.197Z,10.13
2018-04-06T07:59:31.899Z,11.30
2018-04-06T08:01:58.569Z,10.47
2018-04-06T08:04:25.273Z,10.73
2018-04-06T08:06:52.895Z,11.90
2018-04-06T08:09:19.609Z,11.47
2018-04-06T08:11:46.314Z,11.33
2018-04-06T08:14:13.052Z,10.70
2018-04-06T08:16:39.767Z,10.43
2018-04-06T08:19:06.485Z,9.43
2018-04-06T08:21:33.169Z,10.70
2018-04-06T08:23:59.930Z,10.40
2018-04-06T08:26:26.728Z,11.13
2018-04-06T08:28:53.410Z,10.80
2018-04-06T08:31:20.126Z,10.87
2018-04-06T08:33:46.829Z,10.50
2018-04-06T08:36:13.554Z,10.63
2018-04-06T08:38:40.235Z,10.77
2018-04-06T08:41:06.950Z,11.37
2018-04-06T08:43:33.662Z,10.53
2018-04-06T08:46:00.352Z,10.10
2018-04-06T08:48:27.051Z,11.37
2018-04-06T08:50:53.734Z,11.00
2018-04-06T08:53:20.439Z,11.20
2018-04-06T08:55:47.130Z,11.60
2018-04-06T08:58:13.841Z,12.83
2018-04-06T09:00:40.614Z,11.90
2018-04-06T09:03:07.295Z,10.10
2018-04-06T09:05:33.996Z,10.10
2018-04-06T09:08:00.919Z,10.97
2018-04-06T09:10:27.673Z,11.57
2018-04-06T09:12:54.382Z,11.57
2018-04-06T09:15:21.058Z,10.53
2018-04-06T09:17:48.658Z,10.37
2018-04-06T09:20:15.386Z,10.10
2018-04-06T09:22:42.102Z,10.87
2018-04-06T09:25:08.805Z,10.67
2018-04-06T09:27:35.516Z,9.63
2018-04-06T09:30:02.522Z,10.23
2018-04-06T09:32:29.773Z,9.80
2018-04-06T09:34:56.474Z,9.93
2018-04-06T09:37:23.909Z,10.90
2018-04-06T09:39:50.614Z,10.30
2018-04-06T09:42:17.286Z,10.77
2018-04-06T09:44:44.050Z,10.17
2018-04-06T09:47:10.719Z,9.07
2018-04-06T09:49:37.456Z,10.70
2018-04-06T09:52:04.138Z,9.60
2018-04-06T09:54:30.832Z,9.40
2018-04-06T09:56:57.521Z,9.50
2018-04-06T09:59:24.229Z,9.23
2018-04-06T10:01:50.963Z,8.27
2018-04-06T10:04:17.662Z,9.37
2018-04-06T10:06:44.353Z,9.83
2018-04-06T10:09:11.087Z,9.80
2018-04-06T10:11:37.795Z,9.67
2018-04-06T10:14:04.509Z,9.63
2018-04-06T10:16:31.217Z,9.50
2018-04-06T10:18:57.898Z,9.90
2018-04-06T10:21:24.592Z,8.53
2018-04-06T10:23:51.314Z,9.20
2018-04-06T10:26:18.001Z,10.63
2018-04-06T10:28:44.697Z,9.63
2018-04-06T10:31:11.414Z,8.93
2018-04-06T10:33:38.086Z,8.67
2018-04-06T10:36:05.076Z,8.40
2018-04-06T10:38:31.792Z,8.97
2018-04-06T10:40:58.507Z,8.90
2018-04-06T10:43:25.214Z,7.97
2018-04-06T10:45:51.909Z,8.73
2018-04-06T10:48:18.614Z,8.03
2018-04-06T10:50:45.308Z,7.30
2018-04-06T10:53:11.995Z,6.60
2018-04-06T10:55:38.692Z,7.83
2018-04-06T10:58:05.385Z,8.20
2018-04-06T11:00:32.067Z,7.80
2018-04-06T11:02:58.767Z,7.87
2018-04-06T11:05:25.513Z,7.40
2018-04-06T11:07:52.207Z,6.60
2018-04-06T11:10:18.944Z,6.80
2018-04-06T11:12:45.630Z,6.77
2018-04-06T11:15:12.318Z,6.50
2018-04-06T11:17:38.998Z,6.30
2018-04-06T11:20:05.710Z,6.07
2018-04-06T11:22:32.379Z,6.97
2018-04-06T11:24:59.074Z,5.93
2018-04-06T11:27:25.756Z,5.53
2018-04-06T11:29:52.464Z,6.30
2018-04-06T11:32:19.169Z,5.73
2018-04-06T11:34:45.850Z,5.50
2018-04-06T11:37:12.598Z,6.10
2018-04-06T11:39:39.333Z,5.93
2018-04-06T11:42:06.019Z,6.53
2018-04-06T11:44:32.710Z,5.70
2018-04-06T11:46:59.379Z,5.60
2018-04-06T11:49:26.330Z,5.37
2018-04-06T11:51:53.063Z,6.30
2018-04-06T11:54:19.809Z,5.43
2018-04-06T11:56:46.543Z,5.20
2018-04-06T11:59:13.284Z,4.77
2018-04-06T12:01:39.987Z,5.47
2018-04-06T12:04:07.312Z,5.60
2018-04-06T12:06:34.051Z,6.07
2018-04-06T12:09:00.760Z,5.67
2018-04-06T12:11:27.457Z,5.97
2018-04-06T12:13:54.145Z,6.53
2018-04-06T12:16:21.495Z,6.50
2018-04-06T12:18:48.257Z,5.90
2018-04-06T12:21:15.005Z,5.23
2018-04-06T12:23:41.906Z,5.50
2018-04-06T12:26:08.672Z,5.90
2018-04-06T12:28:35.372Z,5.97
2018-04-06T12:33:37.786Z,6.20
2018-04-06T12:36:06.620Z,5.57
2018-04-06T12:38:33.405Z,5.67
2018-04-06T12:41:00.074Z,5.80
2018-04-06T12:43:26.788Z,5.87
2018-04-06T12:45:53.480Z,5.57
2018-04-06T12:48:20.213Z,5.57
2018-04-06T12:50:46.921Z,5.37
2018-04-06T12:53:13.641Z,4.97
2018-04-06T12:55:40.393Z,5.30
2018-04-06T12:58:07.108Z,4.90
2018-04-06T13:00:33.864Z,4.37
2018-04-06T13:03:00.764Z,5.20
2018-04-06T13:05:27.448Z,5.07
2018-04-06T13:07:54.278Z,5.20
2018-04-06T13:10:21.053Z,4.77
2018-04-06T13:12:47.722Z,4.57
2018-04-06T13:15:14.415Z,5.33
2018-04-06T13:17:41.102Z,5.50
2018-04-06T13:20:07.789Z,4.63
2018-04-06T13:22:34.498Z,5.13
2018-04-06T13:25:01.199Z,5.33
2018-04-06T13:27:27.901Z,4.80
2018-04-06T13:29:54.602Z,4.60
2018-04-06T13:32:21.310Z,5.00
2018-04-06T13:34:48.018Z,5.43
2018-04-06T13:37:14.813Z,4.40
2018-04-06T13:39:41.529Z,4.70
2018-04-06T13:42:08.213Z,5.50
2018-04-06T13:44:34.900Z,5.13
2018-04-06T13:47:01.600Z,5.50
2018-04-06T13:49:28.289Z,5.00
2018-04-06T13:51:55.009Z,4.90
2018-04-06T13:54:21.697Z,5.57
2018-04-06T13:56:48.415Z,5.03
2018-04-06T13:59:15.117Z,4.83
2018-04-06T14:01:41.820Z,5.33
2018-04-06T14:04:08.514Z,4.77
2018-04-06T14:06:35.309Z,5.20
2018-04-06T14:09:01.978Z,5.70
2018-04-06T14:11:28.674Z,4.93
2018-04-06T14:13:55.371Z,5.40
2018-04-06T14:16:22.107Z,5.50
2018-04-06T14:18:49.723Z,5.40
2018-04-06T14:21:16.850Z,5.40
2018-04-06T14:23:43.532Z,5.17
2018-04-06T14:26:10.881Z,5.57
2018-04-06T14:28:37.838Z,5.00
2018-04-06T14:31:04.558Z,5.30
2018-04-06T14:33:31.301Z,5.03
2018-04-06T14:35:58.025Z,5.00
2018-04-06T14:38:24.702Z,4.80
2018-04-06T14:40:52.346Z,5.87
2018-04-06T14:43:19.035Z,5.63
2018-04-06T14:45:45.735Z,4.60
2018-04-06T14:48:13.308Z,4.80
2018-04-06T14:50:39.985Z,5.77
2018-04-06T14:53:06.734Z,5.60
2018-04-06T14:55:33.455Z,6.10
2018-04-06T14:58:00.216Z,5.33
2018-04-06T15:00:26.917Z,4.90
2018-04-06T15:02:53.639Z,5.03
2018-04-06T15:05:20.310Z,5.87
2018-04-06T15:07:47.026Z,5.60
2018-04-06T15:10:13.704Z,5.37
2018-04-06T15:12:40.401Z,5.40
2018-04-06T15:15:07.102Z,5.70
2018-04-06T15:17:33.790Z,5.70
2018-04-06T15:20:00.472Z,6.20
2018-04-06T15:22:27.188Z,5.80
2018-04-06T15:24:53.901Z,6.50
2018-04-06T15:27:20.637Z,5.30
2018-04-06T15:29:47.354Z,6.27
2018-04-06T15:32:14.629Z,5.30
2018-04-06T15:34:41.367Z,6.23
2018-04-06T15:37:08.093Z,5.10
2018-04-06T15:39:34.824Z,6.37
2018-04-06T15:42:01.566Z,5.60
2018-04-06T15:44:28.241Z,6.40
2018-04-06T15:46:55.069Z,6.00
2018-04-06T15:49:21.787Z,5.30
2018-04-06T15:51:48.523Z,6.10
2018-04-06T15:54:15.844Z,5.83
2018-04-06T15:56:42.538Z,6.53
2018-04-06T15:59:09.250Z,5.97
2018-04-06T16:01:36.507Z,6.37
2018-04-06T16:04:03.309Z,6.00
2018-04-06T16:06:30.022Z,6.80
2018-04-06T16:08:56.737Z,6.43
2018-04-06T16:11:23.511Z,6.30
2018-04-06T16:13:50.236Z,6.33
2018-04-06T16:16:16.965Z,6.10
2018-04-06T16:18:43.668Z,6.23
2018-04-06T16:21:10.382Z,6.93
2018-04-06T16:23:37.084Z,6.67
2018-04-06T16:26:03.753Z,6.77
2018-04-06T16:28:30.426Z,6.27
2018-04-06T16:30:57.105Z,6.13
2018-04-06T16:33:23.869Z,6.43
2018-04-06T16:35:50.609Z,5.93
2018-04-06T16:38:17.339Z,6.70
2018-04-06T16:40:44.028Z,6.50
2018-04-06T16:43:10.746Z,6.90
2018-04-06T16:45:38.063Z,6.80
2018-04-06T16:48:04.846Z,7.57
2018-04-06T16:50:31.551Z,7.80
2018-04-06T16:52:58.219Z,7.40
2018-04-06T16:55:24.925Z,7.40
2018-04-06T16:57:51.657Z,7.70
2018-04-06T17:00:18.350Z,7.37
2018-04-06T17:02:45.049Z,7.33
2018-04-06T17:05:11.769Z,7.63
2018-04-06T17:07:38.468Z,7.57
2018-04-06T17:10:05.200Z,7.40
2018-04-06T17:12:31.949Z,7.53
2018-04-06T17:14:58.647Z,8.03
2018-04-06T17:17:25.343Z,7.37
2018-04-06T17:19:52.066Z,6.80
2018-04-06T17:22:18.829Z,8.00
2018-04-06T17:24:45.498Z,7.70
2018-04-06T17:27:12.779Z,7.07
2018-04-06T17:29:39.472Z,8.10
2018-04-06T17:32:06.159Z,7.50
2018-04-06T17:34:32.878Z,7.83
2018-04-06T17:36:59.538Z,7.20
2018-04-06T17:39:26.262Z,7.40
2018-04-06T17:41:53.384Z,7.07
2018-04-06T17:44:20.062Z,7.20
2018-04-06T17:46:46.768Z,6.93
2018-04-06T17:49:13.457Z,7.13
2018-04-06T17:51:40.144Z,6.83
2018-04-06T17:54:06.959Z,6.33
2018-04-06T17:56:33.733Z,7.10
2018-04-06T17:59:00.457Z,6.67
2018-04-06T18:01:27.156Z,6.57
2018-04-06T18:03:53.834Z,6.83
2018-04-06T18:06:20.588Z,6.17
2018-04-06T18:08:47.303Z,6.17
2018-04-06T18:11:13.968Z,6.70
2018-04-06T18:13:41.652Z,6.07
2018-04-06T18:16:08.384Z,6.70
2018-04-06T18:18:35.128Z,6.47
2018-04-06T18:21:01.913Z,6.97
2018-04-06T18:23:28.598Z,6.50
2018-04-06T18:25:55.292Z,5.90
2018-04-06T18:28:21.997Z,6.50
2018-04-06T18:30:48.683Z,6.40
2018-04-06T18:33:15.419Z,6.23
2018-04-06T18:35:42.099Z,6.40
2018-04-06T18:38:08.832Z,6.87
2018-04-06T18:40:35.552Z,6.90
2018-04-06T18:43:02.291Z,6.37
2018-04-06T18:45:28.981Z,6.80
2018-04-06T18:47:55.689Z,5.97
2018-04-06T18:50:22.437Z,7.20
2018-04-06T18:52:49.169Z,6.50
2018-04-06T18:55:15.951Z,6.60
2018-04-06T18:57:42.659Z,7.03
2018-04-06T19:00:09.346Z,6.50
2018-04-06T19:02:36.064Z,7.30
2018-04-06T19:05:02.746Z,7.40
2018-04-06T19:07:29.499Z,7.17
2018-04-06T19:09:56.184Z,7.40
2018-04-06T19:12:22.967Z,7.30
2018-04-06T19:14:49.686Z,7.10
2018-04-06T19:17:16.422Z,7.13
2018-04-06T19:19:43.169Z,7.20
2018-04-06T19:22:09.876Z,7.03
2018-04-06T19:24:36.592Z,7.10
2018-04-06T19:27:03.306Z,7.00
2018-04-06T19:29:29.985Z,7.20
2018-04-06T19:31:56.688Z,6.77
2018-04-06T19:34:23.426Z,7.00
2018-04-06T19:36:50.127Z,6.70
2018-04-06T19:39:16.841Z,7.73
2018-04-06T19:41:43.537Z,7.27
2018-04-06T19:44:10.212Z,7.20
2018-04-06T19:46:36.905Z,7.17
2018-04-06T19:49:03.611Z,7.33
2018-04-06T19:51:30.326Z,7.83
2018-04-06T19:53:57.001Z,7.20
2018-04-06T19:56:23.690Z,7.37
2018-04-06T19:58:50.362Z,7.30
2018-04-06T20:01:17.366Z,6.47
2018-04-06T20:03:44.523Z,7.53
2018-04-06T20:06:11.209Z,7.50
2018-04-06T20:08:38.112Z,8.07
2018-04-06T20:11:04.861Z,7.77
2018-04-06T20:13:31.699Z,7.33
2018-04-06T20:15:58.395Z,7.73
2018-04-06T20:18:25.105Z,7.80
2018-04-06T20:20:54.119Z,7.90
2018-04-06T20:23:20.924Z,7.60
2018-04-06T20:25:47.655Z,8.03
2018-04-06T20:28:14.383Z,8.50
2018-04-06T20:30:41.109Z,7.40
2018-04-06T20:33:07.818Z,7.63
2018-04-06T20:35:34.511Z,7.80
2018-04-06T20:38:01.275Z,8.03
2018-04-06T20:40:28.008Z,8.30
2018-04-06T20:42:54.819Z,7.87
2018-04-06T20:45:21.521Z,8.10
2018-04-06T20:47:48.234Z,7.47
2018-04-06T20:50:14.948Z,8.30
2018-04-06T20:52:41.621Z,7.90
2018-04-06T20:55:08.376Z,8.10
2018-04-06T20:57:35.065Z,8.70
2018-04-06T21:00:01.770Z,8.10
2018-04-06T21:02:28.456Z,8.23
2018-04-06T21:04:55.373Z,8.20
2018-04-06T21:07:22.068Z,8.80
2018-04-06T21:09:48.809Z,7.63
2018-04-06T21:12:15.621Z,7.73
2018-04-06T21:14:42.342Z,9.13
2018-04-06T21:17:09.047Z,7.97
2018-04-06T21:19:35.756Z,8.50
2018-04-06T21:22:02.451Z,8.97
2018-04-06T21:24:29.163Z,8.80
2018-04-06T21:26:55.887Z,8.80
2018-04-06T21:29:22.613Z,8.00
2018-04-06T21:31:49.329Z,8.87
2018-04-06T21:34:16.022Z,8.67
2018-04-06T21:36:42.757Z,8.90
2018-04-06T21:39:09.415Z,8.70
2018-04-06T21:41:36.128Z,8.53
2018-04-06T21:44:02.845Z,9.07
2018-04-06T21:46:29.548Z,7.73
2018-04-06T21:48:56.583Z,8.93
2018-04-06T21:51:23.328Z,7.97
2018-04-06T21:53:50.109Z,9.40
2018-04-06T21:56:16.802Z,7.83
2018-04-06T21:58:43.544Z,8.93
2018-04-06T22:01:10.265Z,8.50
2018-04-06T22:03:36.981Z,8.60
2018-04-06T22:06:03.659Z,8.20
2018-04-06T22:08:30.390Z,8.43
2018-04-06T22:10:57.190Z,8.93
2018-04-06T22:13:24.752Z,8.53
2018-04-06T22:15:51.474Z,8.60
2018-04-06T22:18:18.177Z,8.63
2018-04-06T22:20:44.877Z,8.33
2018-04-06T22:23:11.742Z,8.70
2018-04-06T22:25:38.462Z,8.20
2018-04-06T22:28:05.445Z,8.63
2018-04-06T22:30:32.121Z,9.07
2018-04-06T22:32:58.786Z,8.77
2018-04-06T22:35:25.491Z,8.87
2018-04-06T22:37:52.170Z,8.30
2018-04-06T22:40:18.859Z,8.90
2018-04-06T22:42:45.545Z,8.80
2018-04-06T22:45:13.224Z,9.27
2018-04-06T22:47:40.163Z,9.10
2018-04-06T22:50:06.849Z,8.73
2018-04-06T22:52:34.307Z,8.90
2018-04-06T22:55:00.997Z,9.27
2018-04-06T22:57:27.700Z,8.80
2018-04-06T22:59:54.374Z,9.43
2018-04-06T23:02:21.095Z,9.20
2018-04-06T23:04:47.765Z,9.60
2018-04-06T23:07:14.455Z,8.37
2018-04-06T23:09:41.157Z,8.73
2018-04-06T23:12:07.849Z,9.17
2018-04-06T23:14:34.579Z,8.33
2018-04-06T23:17:01.276Z,10.10
2018-04-06T23:19:27.975Z,9.07
2018-04-06T23:21:54.666Z,9.60
2018-04-06T23:24:21.352Z,9.10
2018-04-06T23:26:48.042Z,9.07
2018-04-06T23:29:14.747Z,8.83
2018-04-06T23:31:41.465Z,9.67
2018-04-06T23:34:09.117Z,8.53
2018-04-06T23:36:35.823Z,9.80
2018-04-06T23:39:02.510Z,8.97
2018-04-06T23:41:29.629Z,9.30
2018-04-06T23:43:56.373Z,9.33
2018-04-06T23:46:23.127Z,9.67
2018-04-06T23:48:49.860Z,9.10
2018-04-06T23:51:16.546Z,9.97
2018-04-06T23:53:43.258Z,9.03
2018-04-06T23:56:09.925Z,9.60
2018-04-06T23:58:36.638Z,9.63
